createdAt,value
2022-09-21T00:11:02.411Z,81
2022-09-21T00:12:11.630Z,81
2022-09-21T00:16:54.540Z,82
2022-09-21T00:21:37.383Z,82
2022-09-21T00:27:10.238Z,82
2022-09-21T00:30:38.737Z,82
2022-09-21T00:35:21.663Z,82
2022-09-21T00:40:04.531Z,82
2022-09-21T00:45:17.543Z,83
2022-09-21T00:46:24.206Z,82
2022-09-21T00:54:40.474Z,83
2022-09-21T00:55:52.162Z,83
2022-09-21T00:59:15.587Z,83
2022-09-21T01:03:58.404Z,83
2022-09-21T01:27:49.789Z,83
2022-09-21T01:32:37.617Z,83
2022-09-21T01:37:30.513Z,83
2022-09-21T01:42:51.173Z,84
2022-09-21T01:47:23.258Z,84
2022-09-21T01:52:55.966Z,83
2022-09-21T01:57:47.041Z,83
2022-09-21T02:03:30.852Z,83
2022-09-21T02:08:16.677Z,83
2022-09-21T02:13:47.362Z,84
2022-09-21T02:18:30.029Z,84
2022-09-21T02:19:44.336Z,84
2022-09-21T02:24:35.110Z,84
2022-09-21T02:29:05.116Z,84
2022-09-21T02:30:17.182Z,85
2022-09-21T02:33:40.858Z,84
2022-09-21T02:34:47.946Z,85
2022-09-21T02:40:18.347Z,84
2022-09-21T02:41:27.482Z,84
2022-09-21T02:44:54.895Z,84
2022-09-21T02:49:40.898Z,84
2022-09-21T02:55:09.225Z,84
2022-09-21T02:59:52.249Z,84
2022-09-21T03:05:05.272Z,82
2022-09-21T03:10:18.154Z,83
2022-09-21T03:14:50.976Z,83
2022-09-21T03:19:33.917Z,83
2022-09-21T03:24:17.025Z,84
2022-09-21T03:29:44.820Z,83
2022-09-21T03:34:57.841Z,84
2022-09-21T03:40:10.726Z,84
2022-09-21T03:44:53.654Z,84
2022-09-21T03:50:09.770Z,83
2022-09-21T03:55:19.125Z,83
2022-09-21T03:59:51.345Z,83
2022-09-21T04:04:34.303Z,85
2022-09-21T04:09:46.949Z,84
2022-09-21T04:14:19.172Z,84
2022-09-21T04:19:31.972Z,85
2022-09-21T04:24:14.945Z,84
2022-09-21T04:27:04.798Z,84
2022-09-21T04:28:39.224Z,83
2022-09-21T04:29:43.349Z,84
2022-09-21T04:32:17.960Z,83
2022-09-21T04:33:25.733Z,83
2022-09-21T04:34:29.865Z,83
2022-09-21T04:37:03.125Z,83
2022-09-21T04:38:09.638Z,84
2022-09-21T04:39:13.768Z,84
2022-09-21T04:50:33.184Z,84
2022-09-21T04:51:42.456Z,84
2022-09-21T04:52:49.028Z,84
2022-09-21T04:53:53.396Z,84
2022-09-21T04:56:46.838Z,84
2022-09-21T04:57:51.025Z,84
2022-09-21T04:58:55.271Z,83
2022-09-21T05:00:11.585Z,84
2022-09-21T05:01:15.818Z,84
2022-09-21T05:04:09.336Z,83
2022-09-21T05:05:13.506Z,83
2022-09-21T05:09:56.607Z,83
2022-09-21T05:11:03.377Z,84
2022-09-21T05:15:41.114Z,83
2022-09-21T05:19:07.497Z,83
2022-09-21T05:23:50.340Z,83
2022-09-21T05:26:21.502Z,83
2022-09-21T05:29:48.640Z,83
2022-09-21T05:34:46.514Z,83
2022-09-21T05:38:52.628Z,83
2022-09-21T05:39:56.855Z,83
2022-09-21T05:42:35.525Z,83
2022-09-21T05:43:39.673Z,83
2022-09-21T05:44:46.722Z,83
2022-09-21T05:45:51.005Z,83
2022-09-21T05:47:02.957Z,83
2022-09-21T05:48:12.044Z,83
2022-09-21T05:49:23.961Z,83
2022-09-21T05:50:35.952Z,83
2022-09-21T05:51:47.936Z,83
2022-09-21T05:52:57.004Z,83
2022-09-21T05:54:08.849Z,83
2022-09-21T05:57:12.324Z,83
2022-09-21T05:58:26.592Z,82
2022-09-21T05:59:38.517Z,85
2022-09-21T06:00:52.732Z,84
2022-09-21T06:02:01.940Z,83
2022-09-21T06:03:17.501Z,83
2022-09-21T06:04:23.109Z,83
2022-09-21T06:05:57.493Z,83
2022-09-21T06:07:01.564Z,82
2022-09-21T06:08:05.620Z,83
2022-09-21T06:09:16.960Z,83
2022-09-21T06:10:21.108Z,83
2022-09-21T06:11:27.261Z,83
2022-09-21T06:12:31.356Z,83
2022-09-21T06:13:35.595Z,83
2022-09-21T06:16:16.227Z,82
2022-09-21T06:17:33.805Z,83
2022-09-21T06:18:38.048Z,83
2022-09-21T06:22:04.497Z,83
2022-09-21T06:24:33.397Z,83
2022-09-21T06:27:01.676Z,83
2022-09-21T06:28:05.800Z,84
2022-09-21T06:30:42.452Z,84
2022-09-21T06:31:51.399Z,83
2022-09-21T06:32:55.576Z,83
2022-09-21T06:36:01.464Z,83
2022-09-21T06:37:05.554Z,83
2022-09-21T06:38:09.584Z,84
2022-09-21T06:39:19.584Z,84
2022-09-21T06:40:23.762Z,83
2022-09-21T06:41:32.761Z,83
2022-09-21T06:42:36.880Z,82
2022-09-21T06:43:40.980Z,83
2022-09-21T06:44:45.672Z,83
2022-09-21T06:45:50.008Z,83
2022-09-21T06:46:56.496Z,83
2022-09-21T06:48:13.468Z,83
2022-09-21T06:49:17.532Z,84
2022-09-21T06:52:01.120Z,83
2022-09-21T06:54:54.754Z,84
2022-09-21T06:55:58.921Z,83
2022-09-21T06:59:43.457Z,83
2022-09-21T07:00:47.734Z,83
2022-09-21T07:03:16.477Z,83
2022-09-21T07:06:15.620Z,83
2022-09-21T07:07:19.912Z,83
2022-09-21T07:10:43.452Z,83
2022-09-21T07:13:31.768Z,82
2022-09-21T07:16:55.195Z,82
2022-09-21T07:18:14.180Z,82
2022-09-21T07:19:18.358Z,83
2022-09-21T07:20:27.553Z,83
2022-09-21T07:21:31.727Z,82
2022-09-21T07:24:45.800Z,83
2022-09-21T07:25:49.752Z,84
2022-09-21T07:26:53.792Z,83
2022-09-21T07:27:58.764Z,83
2022-09-21T07:29:02.932Z,83
2022-09-21T07:30:09.044Z,83
2022-09-21T07:31:13.255Z,83
2022-09-21T07:32:17.463Z,83
2022-09-21T07:35:11.219Z,84
2022-09-21T07:40:12.677Z,84
2022-09-21T07:41:18.764Z,84
2022-09-21T07:42:23.074Z,83
2022-09-21T07:43:45.688Z,83
2022-09-21T07:44:50.253Z,84
2022-09-21T07:47:43.256Z,83
2022-09-21T07:48:47.472Z,83
2022-09-21T07:53:07.124Z,83
2022-09-21T07:54:11.216Z,83
2022-09-21T07:55:26.540Z,82
2022-09-21T07:56:30.699Z,83
2022-09-21T07:59:49.228Z,82
2022-09-21T08:00:53.510Z,82
2022-09-21T08:03:46.948Z,83
2022-09-21T08:04:53.643Z,83
2022-09-21T08:06:14.431Z,83
2022-09-21T08:07:18.555Z,83
2022-09-21T08:11:48.310Z,85
2022-09-21T08:12:57.445Z,84
2022-09-21T08:14:01.715Z,83
2022-09-21T08:18:29.350Z,83
2022-09-21T08:21:57.410Z,83
2022-09-21T08:27:11.811Z,83
2022-09-21T08:28:16.087Z,83
2022-09-21T08:31:44.776Z,83
2022-09-21T08:32:51.688Z,84
2022-09-21T08:33:52.907Z,83
2022-09-21T08:35:04.724Z,83
2022-09-21T08:36:09.002Z,82
2022-09-21T08:37:23.111Z,82
2022-09-21T08:38:27.239Z,83
2022-09-21T08:39:34.237Z,83
2022-09-21T08:44:11.858Z,82
2022-09-21T08:45:18.919Z,84
2022-09-21T08:46:24.562Z,84
2022-09-21T08:47:28.551Z,83
2022-09-21T08:48:42.711Z,83
2022-09-21T08:49:49.771Z,82
2022-09-21T08:50:56.687Z,82
2022-09-21T08:52:02.531Z,82
2022-09-21T08:53:06.643Z,83
2022-09-21T08:54:13.823Z,83
2022-09-21T08:55:20.603Z,84
2022-09-21T08:58:14.052Z,83
2022-09-21T08:59:21.156Z,83
2022-09-21T09:02:49.792Z,82
2022-09-21T09:03:56.404Z,82
2022-09-21T09:05:05.503Z,82
2022-09-21T09:06:17.799Z,82
2022-09-21T09:07:26.867Z,82
2022-09-21T09:08:41.044Z,82
2022-09-21T09:09:50.928Z,82
2022-09-21T09:10:54.991Z,83
2022-09-21T09:12:11.139Z,83
2022-09-21T09:13:18.232Z,82
2022-09-21T09:14:27.625Z,81
2022-09-21T09:15:36.651Z,82
2022-09-21T09:16:43.795Z,81
2022-09-21T09:17:57.923Z,82
2022-09-21T09:19:06.975Z,81
2022-09-21T09:20:21.113Z,81
2022-09-21T09:21:32.312Z,81
2022-09-21T09:22:35.407Z,80
2022-09-21T09:23:42.401Z,81
2022-09-21T09:24:51.433Z,79
2022-09-21T09:25:55.526Z,79
2022-09-21T09:26:59.703Z,79
2022-09-21T09:28:03.768Z,79
2022-09-21T09:29:17.887Z,80
2022-09-21T09:30:27.062Z,79
2022-09-21T09:31:31.193Z,79
2022-09-21T09:32:35.303Z,78
2022-09-21T09:33:44.712Z,78
2022-09-21T09:34:53.739Z,78
2022-09-21T09:36:02.799Z,78
2022-09-21T09:37:06.867Z,78
2022-09-21T09:38:13.723Z,78
2022-09-21T09:39:26.020Z,79
2022-09-21T09:40:30.132Z,79
2022-09-21T09:41:34.215Z,79
2022-09-21T09:42:46.103Z,79
2022-09-21T09:43:55.147Z,79
2022-09-21T09:45:09.336Z,79
2022-09-21T09:46:18.446Z,79
2022-09-21T09:47:30.559Z,78
2022-09-21T09:48:34.751Z,79
2022-09-21T09:49:44.567Z,79
2022-09-21T09:50:58.931Z,79
2022-09-21T09:52:03.019Z,78
2022-09-21T09:53:07.019Z,78
2022-09-21T09:54:21.180Z,78
2022-09-21T09:55:28.000Z,79
2022-09-21T09:56:37.959Z,78
2022-09-21T09:57:41.983Z,78
2022-09-21T09:58:46.012Z,77
2022-09-21T09:59:54.157Z,77
2022-09-21T10:00:54.248Z,77
2022-09-21T10:01:58.460Z,76
2022-09-21T10:03:07.471Z,77
2022-09-21T10:04:16.700Z,78
2022-09-21T10:05:20.680Z,77
2022-09-21T10:06:24.811Z,77
2022-09-21T10:07:31.567Z,77
2022-09-21T10:11:05.289Z,78
2022-09-21T10:12:10.529Z,78
2022-09-21T10:13:16.737Z,78
2022-09-21T10:14:23.445Z,78
2022-09-21T10:17:46.848Z,77
2022-09-21T10:18:51.183Z,77
2022-09-21T10:20:59.354Z,77
2022-09-21T10:24:26.199Z,77
2022-09-21T10:27:49.608Z,77
2022-09-21T10:28:53.882Z,77
2022-09-21T10:33:18.299Z,78
2022-09-21T10:34:22.427Z,79
2022-09-21T10:38:56.951Z,79
2022-09-21T10:40:11.277Z,78
2022-09-21T10:41:18.071Z,78
2022-09-21T10:44:51.583Z,77
2022-09-21T10:46:05.803Z,77
2022-09-21T10:47:11.072Z,76
2022-09-21T10:52:47.541Z,75
2022-09-21T10:54:01.624Z,76
2022-09-21T11:07:51.461Z,77
2022-09-21T11:09:03.410Z,77
2022-09-21T11:12:26.931Z,76
2022-09-21T11:13:31.347Z,76
2022-09-21T11:14:45.498Z,76
2022-09-21T11:15:57.477Z,76
2022-09-21T11:17:41.739Z,75
2022-09-21T11:18:45.855Z,76
2022-09-21T11:19:57.871Z,76
2022-09-21T11:21:06.999Z,76
2022-09-21T11:22:19.712Z,75
2022-09-21T11:23:38.555Z,74
2022-09-21T11:24:47.606Z,74
2022-09-21T11:25:59.368Z,74
2022-09-21T11:27:08.543Z,74
2022-09-21T11:28:15.371Z,73
2022-09-21T11:29:19.471Z,73
2022-09-21T11:30:28.943Z,73
2022-09-21T11:31:48.055Z,74
2022-09-21T11:33:02.238Z,74
2022-09-21T11:34:16.622Z,73
2022-09-21T11:35:25.754Z,73
2022-09-21T11:36:34.898Z,71
2022-09-21T11:37:44.186Z,72
2022-09-21T11:38:53.345Z,72
2022-09-21T11:40:02.585Z,72
2022-09-21T11:41:11.627Z,72
2022-09-21T11:42:23.710Z,72
2022-09-21T11:43:32.958Z,72
2022-09-21T11:44:47.206Z,71
2022-09-21T11:45:53.900Z,71
2022-09-21T11:47:08.145Z,70
2022-09-21T11:48:20.568Z,69
2022-09-21T11:49:27.850Z,69
2022-09-21T11:50:40.091Z,70
2022-09-21T11:51:49.094Z,70
2022-09-21T11:52:56.073Z,70
2022-09-21T11:54:08.501Z,69
2022-09-21T11:55:27.698Z,69
2022-09-21T11:56:39.940Z,69
2022-09-21T11:57:54.891Z,69
2022-09-21T11:59:04.203Z,68
2022-09-21T12:00:13.433Z,68
2022-09-21T12:01:20.679Z,68
2022-09-21T12:02:28.183Z,68
2022-09-21T12:03:42.266Z,67
2022-09-21T12:04:49.539Z,67
2022-09-21T12:06:03.848Z,67
2022-09-21T12:07:18.034Z,68
2022-09-21T12:08:25.025Z,68
2022-09-21T12:09:34.293Z,67
2022-09-21T12:10:43.490Z,67
2022-09-21T12:11:57.781Z,66
2022-09-21T12:13:12.121Z,66
2022-09-21T12:14:21.271Z,67
2022-09-21T12:15:35.605Z,68
2022-09-21T12:18:59.235Z,67
2022-09-21T12:23:42.288Z,66
2022-09-21T12:24:52.438Z,67
2022-09-21T12:25:57.189Z,66
2022-09-21T12:27:01.618Z,65
2022-09-21T12:28:06.911Z,65
2022-09-21T12:29:21.266Z,66
2022-09-21T12:30:30.618Z,65
2022-09-21T12:31:39.561Z,65
2022-09-21T12:32:54.370Z,64
2022-09-21T12:37:19.422Z,64
2022-09-21T12:39:45.773Z,64
2022-09-21T12:40:56.106Z,63
2022-09-21T12:42:15.225Z,62
2022-09-21T12:43:27.119Z,62
2022-09-21T12:44:36.290Z,62
2022-09-21T12:48:04.005Z,63
2022-09-21T12:49:18.422Z,63
2022-09-21T12:50:27.546Z,63
2022-09-21T12:51:31.698Z,63
2022-09-21T12:56:10.077Z,64
2022-09-21T12:59:32.625Z,64
2022-09-21T13:00:44.697Z,65
2022-09-21T13:01:57.250Z,65
2022-09-21T13:07:35.313Z,65
2022-09-21T13:12:58.374Z,65
2022-09-21T13:17:28.413Z,65
2022-09-21T13:23:06.606Z,67
2022-09-21T13:27:54.638Z,63
2022-09-21T13:32:40.475Z,63
2022-09-21T13:38:01.495Z,63
2022-09-21T13:39:15.796Z,62
2022-09-21T13:42:39.136Z,61
2022-09-21T13:43:48.325Z,61
2022-09-21T13:49:08.895Z,61
2022-09-21T13:53:38.917Z,61
2022-09-21T13:59:19.615Z,62
2022-09-21T14:02:43.287Z,63
2022-09-21T14:05:36.783Z,63
2022-09-21T14:10:22.523Z,63
2022-09-21T14:13:13.747Z,60
2022-09-21T14:16:45.190Z,61
2022-09-21T14:22:00.899Z,61
2022-09-21T14:27:13.580Z,61
2022-09-21T14:32:19.356Z,61
2022-09-21T14:37:12.323Z,63
2022-09-21T14:42:30.247Z,62
2022-09-21T14:47:43.053Z,74
2022-09-21T14:49:50.964Z,74
2022-09-21T14:54:15.653Z,79
2022-09-21T14:57:19.887Z,80
2022-09-21T14:58:31.663Z,81
2022-09-21T14:59:40.753Z,81
2022-09-21T15:00:50.137Z,82
2022-09-21T15:02:09.142Z,81
2022-09-21T15:03:23.408Z,82
2022-09-21T15:04:30.370Z,83
2022-09-21T15:05:54.161Z,82
2022-09-21T15:07:06.669Z,83
2022-09-21T15:10:40.268Z,81
2022-09-21T15:11:59.738Z,82
2022-09-21T15:13:16.673Z,81
2022-09-21T15:14:26.479Z,81
2022-09-21T15:15:38.470Z,80
2022-09-21T15:16:51.850Z,80
2022-09-21T15:17:59.425Z,80
2022-09-21T15:19:10.379Z,81
2022-09-21T15:22:04.774Z,81
2022-09-21T15:25:21.703Z,82
2022-09-21T15:28:18.769Z,81
2022-09-21T15:35:06.188Z,81
2022-09-21T15:36:20.662Z,81
2022-09-21T15:39:40.530Z,82
2022-09-21T15:40:44.798Z,81
2022-09-21T15:47:13.576Z,81
2022-09-21T15:54:09.110Z,82
2022-09-21T15:55:31.615Z,81
2022-09-21T15:56:35.734Z,81
2022-09-21T16:00:01.667Z,81
2022-09-21T16:02:50.362Z,81
2022-09-21T16:04:19.972Z,81
2022-09-21T16:05:24.011Z,81
2022-09-21T16:06:28.098Z,81
2022-09-21T16:09:27.385Z,81
2022-09-21T16:12:26.909Z,81
2022-09-21T16:13:41.321Z,81
2022-09-21T16:18:25.355Z,81
2022-09-21T16:19:45.118Z,81
2022-09-21T16:22:55.408Z,81
2022-09-21T16:24:04.907Z,81
2022-09-21T16:25:19.030Z,81
2022-09-21T16:26:56.493Z,81
2022-09-21T16:29:42.498Z,81
2022-09-21T16:33:08.640Z,81
2022-09-21T16:34:22.924Z,81
2022-09-21T16:40:03.213Z,81
2022-09-21T16:46:20.134Z,81
2022-09-21T16:47:34.328Z,81
2022-09-21T16:51:01.208Z,81
2022-09-21T16:52:10.388Z,81
2022-09-21T16:58:24.499Z,81
2022-09-21T17:05:13.711Z,81
2022-09-21T17:06:18.632Z,81
2022-09-21T17:12:12.924Z,81
2022-09-21T17:13:17.019Z,81
2022-09-21T17:16:42.721Z,81
2022-09-21T17:17:59.999Z,81
2022-09-21T17:19:26.356Z,81
2022-09-21T17:22:50.591Z,81
2022-09-21T17:23:59.845Z,81
2022-09-21T17:29:14.239Z,81
2022-09-21T17:33:02.436Z,81
2022-09-21T17:34:06.444Z,81
2022-09-21T17:35:10.752Z,82
2022-09-21T17:52:14.810Z,81
2022-09-21T17:53:25.719Z,81
2022-09-21T17:54:35.247Z,81
2022-09-21T17:55:39.743Z,81
2022-09-21T18:00:24.323Z,81
2022-09-21T18:01:28.808Z,81
2022-09-21T18:02:35.784Z,81
2022-09-21T18:03:40.120Z,81
2022-09-21T18:04:45.055Z,81
2022-09-21T18:05:50.103Z,81
2022-09-21T18:06:57.805Z,81
2022-09-21T18:08:02.381Z,81
2022-09-21T18:09:06.914Z,81
2022-09-21T18:10:11.085Z,81
2022-09-21T18:11:16.247Z,81
2022-09-21T18:12:31.748Z,81
2022-09-21T18:13:35.859Z,81
2022-09-21T18:14:52.762Z,81
2022-09-21T18:16:07.568Z,81
2022-09-21T18:17:17.139Z,81
2022-09-21T18:18:31.919Z,81
2022-09-21T18:19:41.428Z,81
2022-09-21T18:20:54.792Z,81
2022-09-21T18:22:05.498Z,81
2022-09-21T18:23:12.839Z,81
2022-09-21T18:24:20.031Z,81
2022-09-21T18:25:28.013Z,81
2022-09-21T18:26:35.944Z,81
2022-09-21T18:27:40.840Z,81
2022-09-21T18:28:45.650Z,81
2022-09-21T18:29:50.900Z,81
2022-09-21T18:30:55.730Z,81
2022-09-21T18:32:00.195Z,81
2022-09-21T18:33:10.027Z,81
2022-09-21T18:35:34.488Z,80
2022-09-21T18:37:58.338Z,80
2022-09-21T18:39:10.841Z,80
2022-09-21T18:40:23.148Z,80
2022-09-21T18:41:37.634Z,81
2022-09-21T18:42:42.285Z,80
2022-09-21T18:43:46.634Z,80
2022-09-21T18:45:01.151Z,80
2022-09-21T18:46:08.662Z,80
2022-09-21T18:47:18.607Z,80
2022-09-21T18:48:22.930Z,80
2022-09-21T18:49:37.930Z,80
2022-09-21T18:50:47.398Z,80
2022-09-21T18:51:57.447Z,80
2022-09-21T18:53:08.458Z,80
2022-09-21T18:54:12.712Z,80
2022-09-21T18:55:19.846Z,80
2022-09-21T18:56:24.947Z,80
2022-09-21T18:57:29.934Z,80
2022-09-21T18:58:34.502Z,80
2022-09-21T18:59:39.898Z,80
2022-09-21T19:00:45.075Z,80
2022-09-21T19:01:51.163Z,80
2022-09-21T19:03:15.584Z,80
2022-09-21T19:03:59.882Z,80
2022-09-21T19:05:04.474Z,80
2022-09-21T19:06:09.242Z,80
2022-09-21T19:07:21.262Z,80
2022-09-21T19:08:28.586Z,80
2022-09-21T19:09:35.981Z,80
2022-09-21T19:10:50.622Z,80
2022-09-21T19:12:00.806Z,80
2022-09-21T19:13:11.671Z,81
2022-09-21T19:14:21.198Z,81
2022-09-21T19:15:55.939Z,81
2022-09-21T19:16:39.651Z,81
2022-09-21T19:17:49.058Z,81
2022-09-21T19:19:03.482Z,81
2022-09-21T19:20:20.785Z,81
2022-09-21T19:21:31.462Z,81
2022-09-21T19:22:44.166Z,81
2022-09-21T19:23:49.490Z,81
2022-09-21T19:25:01.873Z,81
2022-09-21T19:26:09.242Z,81
2022-09-21T19:27:21.194Z,81
2022-09-21T19:28:35.706Z,81
2022-09-21T19:29:43.066Z,81
2022-09-21T19:31:00.263Z,81
2022-09-21T19:32:04.826Z,81
2022-09-21T19:33:26.688Z,81
2022-09-21T19:34:24.317Z,81
2022-09-21T19:35:28.949Z,81
2022-09-21T19:37:37.046Z,81
2022-09-21T19:38:41.662Z,81
2022-09-21T19:39:46.026Z,81
2022-09-21T19:40:50.658Z,81
2022-09-21T19:41:56.130Z,81
2022-09-21T19:43:08.429Z,81
2022-09-21T19:44:21.096Z,81
2022-09-21T19:45:25.380Z,81
2022-09-21T19:46:39.942Z,81
2022-09-21T19:47:47.106Z,81
2022-09-21T19:48:54.707Z,81
2022-09-21T19:49:59.038Z,81
2022-09-21T19:51:08.455Z,81
2022-09-21T19:52:17.925Z,81
2022-09-21T19:53:22.418Z,81
2022-09-21T19:54:33.173Z,81
2022-09-21T19:55:43.063Z,81
2022-09-21T19:56:55.488Z,81
2022-09-21T19:58:02.769Z,81
2022-09-21T19:59:12.139Z,81
2022-09-21T20:00:22.142Z,81
2022-09-21T20:01:26.875Z,81
2022-09-21T20:02:31.891Z,81
2022-09-21T20:03:41.202Z,81
2022-09-21T20:04:46.190Z,81
2022-09-21T20:05:55.518Z,81
2022-09-21T20:07:02.374Z,81
2022-09-21T20:08:14.478Z,81
2022-09-21T20:09:21.630Z,80
2022-09-21T20:10:28.530Z,80
2022-09-21T20:11:35.493Z,80
2022-09-21T20:12:42.749Z,80
2022-09-21T20:13:47.186Z,80
2022-09-21T20:14:56.534Z,80
2022-09-21T20:16:10.817Z,80
2022-09-21T20:17:22.805Z,80
2022-09-21T20:18:32.254Z,80
2022-09-21T20:19:47.383Z,80
2022-09-21T20:20:56.766Z,80
2022-09-21T20:22:01.274Z,80
2022-09-21T20:23:14.854Z,80
2022-09-21T20:24:19.173Z,80
2022-09-21T20:25:26.821Z,80
2022-09-21T20:26:36.317Z,80
2022-09-21T20:27:40.585Z,80
2022-09-21T20:28:44.854Z,80
2022-09-21T20:29:49.290Z,80
2022-09-21T20:30:53.945Z,80
2022-09-21T20:31:58.349Z,80
2022-09-21T20:33:02.649Z,80
2022-09-21T20:34:07.713Z,80
2022-09-21T20:35:12.198Z,81
2022-09-21T20:36:19.285Z,81
2022-09-21T20:37:24.369Z,81
2022-09-21T20:38:29.413Z,80
2022-09-21T20:39:33.705Z,80
2022-09-21T20:40:37.979Z,80
2022-09-21T20:41:42.750Z,80
2022-09-21T20:42:47.059Z,80
2022-09-21T20:43:52.402Z,80
2022-09-21T20:46:00.293Z,81
2022-09-21T20:47:05.589Z,81
2022-09-21T20:48:10.202Z,81
2022-09-21T20:49:14.706Z,81
2022-09-21T20:50:18.978Z,81
2022-09-21T20:51:23.465Z,81
2022-09-21T20:52:27.673Z,81
2022-09-21T20:53:32.025Z,81
2022-09-21T20:54:36.710Z,81
2022-09-21T20:55:40.863Z,81
2022-09-21T20:56:45.486Z,81
2022-09-21T20:57:49.689Z,81
2022-09-21T20:58:54.034Z,81
2022-09-21T20:59:59.925Z,82
2022-09-21T21:01:04.991Z,82
2022-09-21T21:02:09.085Z,81
2022-09-21T21:03:13.361Z,81
2022-09-21T21:04:18.126Z,82
2022-09-21T21:05:22.865Z,81
2022-09-21T21:06:27.086Z,81
2022-09-21T21:07:31.922Z,81
2022-09-21T21:08:36.305Z,81
2022-09-21T21:09:40.798Z,81
2022-09-21T21:10:44.961Z,82
2022-09-21T21:11:49.989Z,82
2022-09-21T21:12:54.526Z,83
2022-09-21T21:13:59.574Z,83
2022-09-21T21:15:03.895Z,82
2022-09-21T21:16:12.002Z,82
2022-09-21T21:17:12.789Z,82
2022-09-21T21:18:17.305Z,82
2022-09-21T21:19:21.833Z,82
2022-09-21T21:20:26.197Z,82
2022-09-21T21:21:30.541Z,82
2022-09-21T21:22:35.417Z,82
2022-09-21T21:23:40.145Z,82
2022-09-21T21:24:49.401Z,82
2022-09-21T21:25:53.639Z,82
2022-09-21T21:27:02.047Z,82
2022-09-21T21:28:03.361Z,82
2022-09-21T21:29:07.697Z,82
2022-09-21T21:30:12.292Z,82
2022-09-21T21:31:21.349Z,82
2022-09-21T21:32:21.517Z,82
2022-09-21T21:33:26.349Z,82
2022-09-21T21:35:34.346Z,82
2022-09-21T21:36:38.646Z,82
2022-09-21T21:37:44.941Z,82
2022-09-21T21:38:49.347Z,82
2022-09-21T21:39:53.589Z,82
2022-09-21T21:40:57.877Z,82
2022-09-21T21:42:02.345Z,82
2022-09-21T21:43:07.134Z,82
2022-09-21T21:44:12.207Z,82
2022-09-21T21:45:17.084Z,82
2022-09-21T21:46:21.305Z,82
2022-09-21T21:47:39.086Z,82
2022-09-21T21:48:30.049Z,82
2022-09-21T21:49:39.576Z,82
2022-09-21T21:50:43.861Z,81
2022-09-21T21:51:48.185Z,81
2022-09-21T21:52:52.489Z,81
2022-09-21T21:54:00.289Z,82
2022-09-21T21:55:04.925Z,82
2022-09-21T21:56:10.041Z,82
2022-09-21T21:57:14.253Z,81
2022-09-21T21:58:18.533Z,81
2022-09-21T21:59:22.832Z,81
2022-09-21T22:00:27.173Z,81
2022-09-21T22:01:31.532Z,81
2022-09-21T22:02:35.786Z,81
2022-09-21T22:03:40.093Z,81
2022-09-21T22:04:45.093Z,81
2022-09-21T22:05:50.205Z,81
2022-09-21T22:06:55.897Z,81
2022-09-21T22:08:00.394Z,81
2022-09-21T22:09:04.609Z,81
2022-09-21T22:10:09.200Z,81
2022-09-21T22:11:13.465Z,81
2022-09-21T22:12:17.917Z,81
2022-09-21T22:13:22.620Z,81
2022-09-21T22:14:27.125Z,81
2022-09-21T22:15:31.473Z,81
2022-09-21T22:16:35.807Z,81
2022-09-21T22:17:40.469Z,81
2022-09-21T22:19:48.613Z,81
2022-09-21T22:20:52.778Z,81
2022-09-21T22:21:57.318Z,81
2022-09-21T22:23:01.645Z,81
2022-09-21T22:24:06.042Z,81
2022-09-21T22:25:10.550Z,81
2022-09-21T22:26:16.733Z,81
2022-09-21T22:27:21.342Z,81
2022-09-21T22:28:25.750Z,81
2022-09-21T22:30:33.670Z,82
2022-09-21T22:31:38.031Z,81
2022-09-21T22:32:42.189Z,81
2022-09-21T22:33:46.453Z,82
2022-09-21T22:34:50.721Z,82
2022-09-21T22:35:54.965Z,81
2022-09-21T22:37:07.117Z,81
2022-09-21T22:38:11.617Z,81
2022-09-21T22:39:15.916Z,81
2022-09-21T22:40:20.280Z,81
2022-09-21T22:41:24.717Z,81
2022-09-21T22:42:29.132Z,81
2022-09-21T22:43:34.140Z,81
2022-09-21T22:44:38.961Z,82
2022-09-21T22:45:43.381Z,81
2022-09-21T22:46:47.581Z,81
2022-09-21T22:47:51.897Z,81
2022-09-21T22:48:56.450Z,81
2022-09-21T22:50:00.685Z,81
2022-09-21T22:51:05.140Z,82
2022-09-21T22:52:09.457Z,82
2022-09-21T22:53:13.575Z,82
2022-09-21T22:54:18.013Z,82
2022-09-21T22:55:22.321Z,81
2022-09-21T22:56:27.005Z,82
2022-09-21T22:57:31.357Z,82
2022-09-21T22:58:35.613Z,82
2022-09-21T22:59:42.824Z,82
2022-09-21T23:00:47.476Z,82
2022-09-21T23:01:51.657Z,82
2022-09-21T23:02:55.893Z,82
2022-09-21T23:04:01.893Z,82
2022-09-21T23:05:09.009Z,82
2022-09-21T23:06:13.556Z,82
2022-09-21T23:07:17.769Z,82
2022-09-21T23:09:26.069Z,83
2022-09-21T23:10:30.349Z,82
2022-09-21T23:11:36.465Z,82
2022-09-21T23:12:40.981Z,83
2022-09-21T23:13:45.785Z,82
2022-09-21T23:14:50.693Z,82
2022-09-21T23:15:55.005Z,82
2022-09-21T23:17:05.041Z,82
2022-09-21T23:18:09.325Z,82
2022-09-21T23:19:14.357Z,82
2022-09-21T23:20:18.629Z,82
2022-09-21T23:21:23.027Z,82
2022-09-21T23:22:27.509Z,82
2022-09-21T23:23:31.824Z,82
2022-09-21T23:24:36.292Z,82
2022-09-21T23:25:41.320Z,82
2022-09-21T23:26:45.580Z,81
2022-09-21T23:27:50.443Z,82
2022-09-21T23:28:55.228Z,82
2022-09-21T23:29:59.920Z,82
2022-09-21T23:31:04.349Z,82
2022-09-21T23:32:09.280Z,82
2022-09-21T23:33:13.712Z,82
2022-09-21T23:34:18.269Z,82
2022-09-21T23:35:22.461Z,82
2022-09-21T23:36:27.021Z,82
2022-09-21T23:37:32.053Z,82
2022-09-21T23:38:36.380Z,83
2022-09-21T23:39:40.523Z,83
2022-09-21T23:40:47.841Z,82
2022-09-21T23:41:52.120Z,82
2022-09-21T23:42:57.105Z,82
2022-09-21T23:44:01.620Z,83
2022-09-21T23:45:05.964Z,82
2022-09-21T23:46:10.368Z,82
2022-09-21T23:47:14.894Z,82
2022-09-21T23:48:21.512Z,82
2022-09-21T23:49:25.808Z,82
2022-09-21T23:50:30.101Z,82
2022-09-21T23:51:34.365Z,82
2022-09-21T23:52:38.840Z,82
2022-09-21T23:53:43.345Z,82
2022-09-21T23:54:47.617Z,82
2022-09-21T23:55:52.200Z,82
2022-09-21T23:56:56.516Z,82
2022-09-21T23:58:00.741Z,81
2022-09-21T23:59:05.276Z,82
